createdAt,value
2019-04-25T00:05:03.277Z,5.30
2019-04-25T00:10:58.901Z,5.17
2019-04-25T00:16:31.224Z,5.16
2019-04-25T00:19:01.855Z,5.11
2019-04-25T00:21:51.684Z,5.05
2019-04-25T00:36:28.323Z,4.96
2019-04-25T00:38:57.709Z,4.84
2019-04-25T00:41:27.285Z,4.66
2019-04-25T00:43:56.738Z,4.67
2019-04-25T00:46:26.056Z,4.63
2019-04-25T00:48:55.517Z,4.60
2019-04-25T00:51:25.003Z,4.58
2019-04-25T00:57:08.422Z,4.52
2019-04-25T00:59:56.777Z,4.49
2019-04-25T01:05:28.634Z,4.43
2019-04-25T01:07:58.108Z,4.43
2019-04-25T01:11:06.804Z,4.39
2019-04-25T01:13:48.253Z,4.37
2019-04-25T01:19:13.503Z,4.08
2019-04-25T01:24:58.641Z,3.93
2019-04-25T01:27:27.988Z,3.84
2019-04-25T01:33:33.364Z,3.72
2019-04-25T01:39:28.228Z,3.68
2019-04-25T01:42:16.466Z,3.63
2019-04-25T01:45:25.169Z,3.64
2019-04-25T01:50:44.630Z,3.55
2019-04-25T01:56:07.595Z,3.40
2019-04-25T01:58:35.553Z,3.40
2019-04-25T02:01:44.249Z,3.46
2019-04-25T02:07:26.370Z,3.44
2019-04-25T02:13:24.977Z,3.45
2019-04-25T02:19:24.184Z,3.50
2019-04-25T02:21:55.597Z,3.27
2019-04-25T02:24:38.201Z,3.08
2019-04-25T02:27:07.702Z,3.24
2019-04-25T02:29:37.032Z,3.29
2019-04-25T02:34:45.296Z,3.43
2019-04-25T02:37:14.557Z,3.45
2019-04-25T02:39:45.176Z,3.43
2019-04-25T02:42:16.875Z,3.49
2019-04-25T02:48:01.338Z,3.53
2019-04-25T02:53:46.128Z,3.39
2019-04-25T02:56:30.610Z,3.17
2019-04-25T02:59:26.115Z,3.16
2019-04-25T03:08:11.556Z,3.28
2019-04-25T03:10:44.314Z,3.36
2019-04-25T03:13:14.808Z,3.36
2019-04-25T03:15:44.821Z,3.36
2019-04-25T03:21:41.816Z,2.85
2019-04-25T03:24:15.936Z,3.50
2019-04-25T03:26:53.462Z,3.44
2019-04-25T03:29:24.663Z,3.44
2019-04-25T03:31:56.069Z,3.53
2019-04-25T03:34:25.600Z,3.60
2019-04-25T03:36:56.651Z,3.64
2019-04-25T03:39:27.116Z,3.66
2019-04-25T03:42:35.957Z,3.60
2019-04-25T03:48:19.786Z,3.43
2019-04-25T03:50:49.148Z,3.54
2019-04-25T03:53:18.494Z,3.43
2019-04-25T03:56:27.255Z,3.41
2019-04-25T04:02:10.974Z,3.55
2019-04-25T04:04:43.407Z,3.71
2019-04-25T04:07:14.729Z,3.81
2019-04-25T04:09:44.024Z,3.90
2019-04-25T04:12:14.786Z,3.98
2019-04-25T04:14:44.765Z,3.99
2019-04-25T04:17:33.900Z,4.08
2019-04-25T04:20:23.517Z,4.15
2019-04-25T04:29:08.414Z,4.45
2019-04-25T04:31:37.820Z,4.57
2019-04-25T04:34:07.242Z,4.68
2019-04-25T04:36:36.757Z,4.78
2019-04-25T04:39:08.750Z,5.36
2019-04-25T04:41:38.203Z,6.55
2019-04-25T04:44:10.239Z,7.32
2019-04-25T04:46:39.615Z,7.90
2019-04-25T04:49:48.300Z,8.52
2019-04-25T04:52:17.753Z,9.13
2019-04-25T04:54:47.129Z,9.51
2019-04-25T05:03:34.212Z,8.42
2019-04-25T05:09:17.860Z,8.16
2019-04-25T05:11:58.500Z,8.23
2019-04-25T05:14:27.937Z,8.34
2019-04-25T05:16:57.499Z,8.61
2019-04-25T05:19:27.223Z,9.55
2019-04-25T05:22:08.343Z,11.37
2019-04-25T05:25:17.834Z,13.38
2019-04-25T05:33:21.257Z,15.54
2019-04-25T05:35:50.285Z,15.91
2019-04-25T05:38:20.143Z,15.38
2019-04-25T05:41:22.287Z,14.84
2019-04-25T05:43:53.602Z,15.63
2019-04-25T05:46:25.400Z,16.49
2019-04-25T05:58:13.778Z,13.22
2019-04-25T06:09:35.828Z,11.88
2019-04-25T06:12:18.081Z,11.67
2019-04-25T06:14:47.663Z,11.77
2019-04-25T06:20:49.790Z,12.00
2019-04-25T06:29:30.672Z,12.29
2019-04-25T06:32:07.897Z,12.38
2019-04-25T06:34:33.995Z,12.52
2019-04-25T06:46:29.172Z,13.42
2019-04-25T06:49:17.602Z,13.61
2019-04-25T06:52:05.870Z,13.56
2019-04-25T06:54:35.489Z,13.14
2019-04-25T06:57:04.859Z,13.22
2019-04-25T07:00:14.079Z,13.20
2019-04-25T07:02:45.039Z,13.37
2019-04-25T07:05:53.744Z,13.67
2019-04-25T07:08:25.502Z,14.06
2019-04-25T07:11:34.882Z,14.10
2019-04-25T07:19:45.298Z,15.60
2019-04-25T07:22:15.532Z,16.11
2019-04-25T07:24:45.077Z,16.38
2019-04-25T07:39:08.206Z,18.23
2019-04-25T07:41:30.043Z,17.99
2019-04-25T07:43:59.532Z,18.21
2019-04-25T07:49:37.916Z,19.41
2019-04-25T07:58:11.788Z,20.50
2019-04-25T08:03:49.972Z,20.41
2019-04-25T08:06:22.048Z,20.88
2019-04-25T08:08:50.729Z,20.90
2019-04-25T08:11:20.259Z,21.06
2019-04-25T08:14:08.661Z,21.33
2019-04-25T08:17:17.463Z,21.82
2019-04-25T08:20:26.194Z,22.25
2019-04-25T08:26:09.885Z,22.81
2019-04-25T08:28:50.324Z,22.77
2019-04-25T08:31:10.435Z,22.99
2019-04-25T08:34:19.188Z,23.26
2019-04-25T08:39:38.437Z,23.32
2019-04-25T08:42:08.381Z,23.18
2019-04-25T08:44:56.729Z,23.32
2019-04-25T08:59:52.311Z,23.13
2019-04-25T09:08:16.249Z,24.42
2019-04-25T09:14:06.235Z,24.42
2019-04-25T09:16:36.726Z,24.72
2019-04-25T09:19:45.762Z,24.23
2019-04-25T09:25:20.959Z,24.78
2019-04-25T09:27:50.694Z,24.41
2019-04-25T09:33:14.908Z,24.60
2019-04-25T09:35:45.875Z,24.99
2019-04-25T09:38:54.985Z,25.32
2019-04-25T09:56:38.301Z,25.54
2019-04-25T09:59:30.018Z,25.55
2019-04-25T10:05:00.479Z,25.39
2019-04-25T10:07:30.109Z,24.87
2019-04-25T10:10:38.862Z,24.81
2019-04-25T10:13:09.942Z,24.67
2019-04-25T10:19:03.413Z,25.05
2019-04-25T10:22:13.723Z,25.37
2019-04-25T10:24:43.076Z,25.26
2019-04-25T10:27:13.953Z,25.37
2019-04-25T10:29:50.906Z,25.42
2019-04-25T10:35:53.191Z,25.47
2019-04-25T10:44:24.410Z,24.20
2019-04-25T10:47:33.419Z,24.22
2019-04-25T10:53:10.081Z,24.41
2019-04-25T10:55:40.396Z,24.22
2019-04-25T10:58:10.819Z,24.32
2019-04-25T11:01:19.493Z,24.59
2019-04-25T11:04:07.903Z,25.02
2019-04-25T11:06:37.604Z,25.19
2019-04-25T11:15:34.014Z,24.45
2019-04-25T11:18:04.185Z,24.50
2019-04-25T11:21:13.973Z,24.27
2019-04-25T11:23:46.954Z,24.43
2019-04-25T11:26:55.287Z,24.03
2019-04-25T11:29:25.311Z,23.62
2019-04-25T11:31:54.800Z,23.78
2019-04-25T11:35:03.932Z,23.42
2019-04-25T11:37:34.652Z,23.13
2019-04-25T11:43:39.242Z,22.59
2019-04-25T11:46:08.655Z,22.50
2019-04-25T11:48:38.026Z,22.36
2019-04-25T11:51:08.215Z,22.31
2019-04-25T11:53:37.855Z,22.17
2019-04-25T12:04:59.756Z,21.96
2019-04-25T12:08:08.646Z,21.77
2019-04-25T12:13:39.368Z,21.61
2019-04-25T12:16:08.696Z,21.59
2019-04-25T12:18:38.246Z,21.73
2019-04-25T12:21:07.859Z,21.51
2019-04-25T12:23:37.218Z,21.43
2019-04-25T12:26:47.406Z,20.87
2019-04-25T12:35:31.045Z,20.73
2019-04-25T12:38:00.936Z,20.47
2019-04-25T12:40:30.303Z,20.49
2019-04-25T12:42:59.930Z,20.64
2019-04-25T12:49:04.067Z,20.50
2019-04-25T12:54:08.003Z,20.99
2019-04-25T12:56:37.406Z,21.26
2019-04-25T12:59:07.321Z,20.98
2019-04-25T13:01:36.725Z,20.84
2019-04-25T13:04:06.589Z,20.81
2019-04-25T13:06:36.151Z,20.75
2019-04-25T13:09:45.796Z,20.90
2019-04-25T13:17:53.707Z,20.94
2019-04-25T13:20:24.481Z,20.77
2019-04-25T13:23:34.253Z,21.05
2019-04-25T13:29:29.592Z,21.04
2019-04-25T13:38:16.178Z,20.73
2019-04-25T13:43:47.059Z,20.45
2019-04-25T13:46:55.733Z,20.57
2019-04-25T13:52:00.046Z,20.32
2019-04-25T13:57:43.715Z,22.24
2019-04-25T14:03:15.126Z,23.63
2019-04-25T14:06:24.023Z,23.76
2019-04-25T14:24:06.760Z,22.33
2019-04-25T14:36:04.245Z,22.21
2019-04-25T14:45:00.954Z,22.12
2019-04-25T14:50:54.942Z,22.18
2019-04-25T15:39:19.729Z,19.74
2019-04-25T15:42:28.497Z,19.61
2019-04-25T15:54:30.326Z,17.39
2019-04-25T15:57:11.383Z,17.37
2019-04-25T15:59:41.042Z,17.33
2019-04-25T16:02:14.374Z,17.17
2019-04-25T16:05:26.545Z,16.76
2019-04-25T16:41:29.110Z,15.69
2019-04-25T16:47:05.146Z,15.52
2019-04-25T16:53:19.953Z,14.98
2019-04-25T17:02:18.789Z,14.54
2019-04-25T17:05:27.693Z,14.41
2019-04-25T17:17:35.886Z,13.75
2019-04-25T17:23:19.586Z,13.38
2019-04-25T17:32:21.253Z,13.08
2019-04-25T17:35:28.648Z,12.94
2019-04-25T17:38:28.783Z,12.84
2019-04-25T17:41:38.370Z,12.82
2019-04-25T17:50:40.256Z,12.75
2019-04-25T17:56:15.787Z,12.71
2019-04-25T17:59:05.088Z,12.69
2019-04-25T18:02:14.006Z,12.60
2019-04-25T18:17:07.091Z,12.43
2019-04-25T18:20:16.539Z,12.31
2019-04-25T18:23:24.097Z,12.21
2019-04-25T18:51:23.970Z,11.35
2019-04-25T19:03:22.906Z,11.04
2019-04-25T19:18:44.426Z,10.60
2019-04-25T19:33:45.439Z,10.06
2019-04-25T19:39:28.611Z,9.96
2019-04-25T19:51:54.633Z,9.61
2019-04-25T19:57:59.614Z,9.30
2019-04-25T20:03:47.544Z,9.23
2019-04-25T20:06:30.100Z,9.22
2019-04-25T20:09:16.505Z,9.15
2019-04-25T20:11:49.443Z,9.06
2019-04-25T20:14:19.614Z,9.01
2019-04-25T20:16:50.119Z,8.98
2019-04-25T20:19:22.808Z,8.79
2019-04-25T20:21:57.043Z,8.62
2019-04-25T20:24:29.901Z,8.49
2019-04-25T20:27:00.509Z,8.40
2019-04-25T20:29:31.187Z,8.28
2019-04-25T20:32:03.570Z,8.04
2019-04-25T20:34:35.073Z,7.93
2019-04-25T20:37:05.712Z,7.86
2019-04-25T20:39:38.587Z,7.70
2019-04-25T20:42:10.026Z,7.68
2019-04-25T20:44:39.627Z,7.65
2019-04-25T20:47:09.179Z,7.66
2019-04-25T20:49:43.365Z,7.53
2019-04-25T20:52:14.671Z,7.48
2019-04-25T20:54:44.526Z,7.52
2019-04-25T20:57:16.449Z,7.57
2019-04-25T20:59:45.881Z,7.59
2019-04-25T21:02:17.288Z,7.61
2019-04-25T21:04:47.764Z,7.60
2019-04-25T21:07:18.149Z,7.53
2019-04-25T21:09:47.646Z,7.49
2019-04-25T21:12:17.087Z,7.41
2019-04-25T21:15:21.793Z,7.38
2019-04-25T21:18:01.680Z,7.27
2019-04-25T21:20:31.278Z,7.23
2019-04-25T21:23:03.002Z,7.24
2019-04-25T21:25:32.429Z,7.21
2019-04-25T21:28:01.864Z,7.22
2019-04-25T21:30:31.386Z,7.19
2019-04-25T21:33:01.787Z,7.15
2019-04-25T21:35:31.907Z,7.09
2019-04-25T21:38:01.670Z,7.09
2019-04-25T21:40:49.780Z,7.01
2019-04-25T21:43:25.341Z,6.95
2019-04-25T21:45:55.961Z,6.79
2019-04-25T21:48:25.854Z,6.77
2019-04-25T21:50:55.415Z,6.75
2019-04-25T21:53:24.810Z,6.68
2019-04-25T21:55:55.291Z,6.61
2019-04-25T21:58:25.208Z,6.55
2019-04-25T22:01:05.762Z,6.37
2019-04-25T22:03:39.478Z,6.28
2019-04-25T22:06:09.191Z,6.19
2019-04-25T22:08:38.581Z,6.18
2019-04-25T22:11:08.089Z,6.13
2019-04-25T22:13:37.744Z,6.15
2019-04-25T22:16:07.563Z,6.17
2019-04-25T22:18:37.154Z,6.16
2019-04-25T22:21:06.586Z,6.12
2019-04-25T22:23:36.398Z,6.03
2019-04-25T22:26:06.170Z,5.97
2019-04-25T22:28:36.455Z,5.95
2019-04-25T22:31:10.660Z,5.91
2019-04-25T22:33:46.908Z,5.88
2019-04-25T22:36:18.547Z,5.86
2019-04-25T22:39:06.893Z,5.85
2019-04-25T22:41:37.059Z,5.75
2019-04-25T22:44:07.920Z,5.61
2019-04-25T22:46:37.554Z,5.55
2019-04-25T22:49:07.680Z,5.53
2019-04-25T22:51:37.228Z,5.51
2019-04-25T22:54:07.391Z,5.40
2019-04-25T22:56:36.836Z,5.37
2019-04-25T22:59:06.917Z,5.34
2019-04-25T23:01:56.101Z,5.17
2019-04-25T23:04:44.598Z,5.03
2019-04-25T23:07:14.737Z,4.98
2019-04-25T23:09:44.119Z,5.01
2019-04-25T23:12:13.774Z,5.03
2019-04-25T23:14:43.465Z,5.03
2019-04-25T23:17:13.429Z,4.99
2019-04-25T23:19:43.252Z,4.92
2019-04-25T23:22:13.613Z,4.79
2019-04-25T23:24:49.101Z,4.68
2019-04-25T23:27:28.066Z,4.61
2019-04-25T23:29:57.477Z,4.58
2019-04-25T23:32:27.249Z,4.49
2019-04-25T23:34:56.794Z,4.51
2019-04-25T23:37:26.177Z,4.52
2019-04-25T23:39:55.558Z,4.48
2019-04-25T23:42:25.098Z,4.45
2019-04-25T23:44:55.327Z,4.44
2019-04-25T23:47:24.867Z,4.42
2019-04-25T23:49:54.342Z,4.38
2019-04-25T23:52:23.916Z,4.36
2019-04-25T23:54:53.341Z,4.30
2019-04-25T23:57:23.102Z,4.22
2019-04-25T23:59:52.614Z,4.16
